Time;durP1;ratioP1;P1;durP2;ratioP2;P2;SDS_P1;SDS_P2;PMS_P1;PMS_P2;Temp;Humidity;BMP_temperature;BMP_pressure;BME280_temperature;BME280_humidity;BME280_pressure;Samples;Min_cycle;Max_cycle;Signal;HPM_P1;HPM_P2
2023/09/05 00:01:37;;;;;;;6.88;2.20;;;;;;;17.67;100.00;99280.94;5094135;28;20158;-77
2023/09/05 00:04:03;;;;;;;5.03;2.33;;;;;;;17.62;100.00;99267.13;5075606;28;20389;-77
2023/09/05 00:06:28;;;;;;;4.68;2.00;;;;;;;17.72;100.00;99277.50;5112435;22;20104;-62
2023/09/05 00:08:53;;;;;;;5.88;2.10;;;;;;;17.70;100.00;99274.97;5066824;28;20457;-58
2023/09/05 00:11:19;;;;;;;4.47;2.10;;;;;;;17.72;100.00;99274.75;5082138;28;20508;-58
2023/09/05 00:13:44;;;;;;;4.03;2.40;;;;;;;17.77;100.00;99266.66;5080564;28;20517;-61
2023/09/05 00:16:10;;;;;;;20.52;2.40;;;;;;;17.75;100.00;99269.63;5089734;28;20024;-62
2023/09/05 00:18:35;;;;;;;3.53;2.00;;;;;;;17.70;100.00;99272.25;5077654;28;20918;-58
2023/09/05 00:21:00;;;;;;;3.50;2.13;;;;;;;17.61;100.00;99279.16;5076915;28;20026;-63
2023/09/05 00:23:26;;;;;;;3.55;2.10;;;;;;;17.53;100.00;99280.34;5073948;28;20012;-58
2023/09/05 00:25:52;;;;;;;3.10;1.95;;;;;;;17.57;100.00;99277.94;5086477;28;20039;-62
2023/09/05 00:28:20;;;;;;;2.70;1.75;;;;;;;17.52;100.00;99275.09;5088589;28;20066;-63
2023/09/05 00:30:46;;;;;;;3.13;1.88;;;;;;;17.35;100.00;99272.22;5074010;28;20024;-62
2023/09/05 00:33:12;;;;;;;3.40;1.80;;;;;;;17.28;100.00;99275.06;5066224;28;20082;-63
2023/09/05 00:35:37;;;;;;;3.28;1.90;;;;;;;17.30;100.00;99277.56;5077199;28;20036;-58
2023/09/05 00:38:03;;;;;;;5.93;2.00;;;;;;;17.31;100.00;99284.69;5084450;28;20440;-58
2023/09/05 00:40:29;;;;;;;5.60;1.83;;;;;;;17.33;100.00;99276.28;5082229;28;20024;-58
2023/09/05 00:42:56;;;;;;;2.95;1.95;;;;;;;17.36;100.00;99275.78;5089231;28;20118;-58
2023/09/05 00:45:22;;;;;;;3.38;1.95;;;;;;;17.39;100.00;99270.69;5083905;28;20073;-63
2023/09/05 00:47:48;;;;;;;3.30;1.80;;;;;;;17.47;100.00;99270.31;5067490;28;20034;-58
2023/09/05 00:50:18;;;;;;;2.88;1.90;;;;;;;17.49;100.00;99275.56;5068202;28;20115;-59
2023/09/05 00:52:44;;;;;;;3.22;2.00;;;;;;;17.44;100.00;99270.81;5076259;28;20413;-59
2023/09/05 00:55:11;;;;;;;4.47;2.00;;;;;;;17.38;100.00;99268.19;5073938;28;20024;-58
2023/09/05 00:57:38;;;;;;;3.75;1.85;;;;;;;17.36;100.00;99259.38;5076039;28;20468;-58
2023/09/05 01:00:05;;;;;;;3.20;1.63;;;;;;;17.34;100.00;99267.81;5075334;28;20042;-59
2023/09/05 01:02:31;;;;;;;4.75;1.80;;;;;;;17.32;100.00;99261.78;5074590;28;20036;-62
2023/09/05 01:04:56;;;;;;;3.50;1.80;;;;;;;17.45;100.00;99269.75;5067670;28;20036;-59
2023/09/05 01:07:37;;;;;;;2.42;1.40;;;;;;;17.45;100.00;99272.50;5067463;28;20066;-63
2023/09/05 01:10:11;;;;;;;3.38;1.63;;;;;;;17.44;100.00;99267.25;5084836;28;20059;-63
2023/09/05 01:12:37;;;;;;;3.25;1.63;;;;;;;17.46;100.00;99273.31;5095690;28;20034;-58
2023/09/05 01:15:04;;;;;;;3.28;1.63;;;;;;;17.39;100.00;99278.06;5084371;28;20032;-59
2023/09/05 01:17:30;;;;;;;2.65;1.58;;;;;;;17.32;100.00;99280.91;5074900;28;20502;-58
2023/09/05 01:19:56;;;;;;;3.20;1.60;;;;;;;17.33;100.00;99266.16;5075875;28;20028;-58
2023/09/05 01:22:31;;;;;;;2.88;1.73;;;;;;;17.40;100.00;99261.41;5079182;28;20024;-59
2023/09/05 01:24:56;;;;;;;3.20;1.85;;;;;;;17.35;100.00;99272.22;5079407;28;20035;-60
2023/09/05 01:27:26;;;;;;;4.32;1.90;;;;;;;17.30;100.00;99272.94;5082495;28;20023;-59
2023/09/05 01:29:51;;;;;;;5.07;1.60;;;;;;;17.27;100.00;99278.88;5085451;28;20028;-64
2023/09/05 01:32:19;;;;;;;3.58;1.60;;;;;;;17.35;100.00;99271.41;5067343;28;20037;-64
2023/09/05 01:34:45;;;;;;;4.47;2.17;;;;;;;17.29;100.00;99273.16;5077387;28;20102;-64
2023/09/05 01:37:14;;;;;;;3.35;1.90;;;;;;;17.29;100.00;99270.41;5070608;28;20043;-59
2023/09/05 01:39:40;;;;;;;2.80;1.65;;;;;;;17.17;100.00;99277.78;5080746;28;20042;-60
2023/09/05 01:42:05;;;;;;;2.92;1.65;;;;;;;17.16;100.00;99276.97;5086747;28;20039;-59
2023/09/05 01:44:32;;;;;;;2.80;1.50;;;;;;;17.31;100.00;99280.06;5095420;28;20020;-59
2023/09/05 01:46:58;;;;;;;2.45;1.42;;;;;;;17.31;100.00;99274.59;5058220;28;20031;-59
2023/09/05 01:49:23;;;;;;;2.20;1.40;;;;;;;17.37;100.00;99271.97;5054940;28;20158;-57
2023/09/05 01:51:48;;;;;;;5.68;1.83;;;;;;;17.28;100.00;99269.59;5055191;28;20027;-64
2023/09/05 01:54:14;;;;;;;3.03;1.88;;;;;;;17.16;100.00;99266.03;5066381;28;20026;-59
2023/09/05 01:56:39;;;;;;;4.20;1.90;;;;;;;17.07;100.00;99261.97;5083904;28;20035;-59
2023/09/05 01:59:05;;;;;;;6.47;1.67;;;;;;;17.03;100.00;99255.31;5086196;28;20026;-59
2023/09/05 02:01:32;;;;;;;4.00;1.75;;;;;;;16.89;100.00;99262.84;5079337;28;20095;-62
2023/09/05 02:03:58;;;;;;;4.20;1.45;;;;;;;16.84;100.00;99252.63;5069285;28;20035;-64
2023/09/05 02:06:24;;;;;;;5.18;1.67;;;;;;;16.63;100.00;99255.84;5079499;28;20028;-64
2023/09/05 02:08:50;;;;;;;3.65;1.77;;;;;;;16.37;100.00;99246.97;5081999;28;20536;-64
2023/09/05 02:11:16;;;;;;;3.28;1.90;;;;;;;16.28;100.00;99252.97;5086725;28;20035;-59
2023/09/05 02:13:41;;;;;;;5.78;1.73;;;;;;;16.07;100.00;99240.63;5059842;28;20055;-63
2023/09/05 02:16:07;;;;;;;2.50;1.60;;;;;;;15.94;100.00;99253.34;5066320;28;20402;-59
2023/09/05 02:18:32;;;;;;;4.82;1.70;;;;;;;15.98;100.00;99254.59;5074181;28;20078;-64
2023/09/05 02:21:00;;;;;;;5.15;2.10;;;;;;;15.85;100.00;99257.47;5074853;28;20028;-64
2023/09/05 02:23:25;;;;;;;4.95;1.83;;;;;;;15.63;100.00;99253.44;5071557;28;20035;-64
2023/09/05 02:25:58;;;;;;;3.20;1.83;;;;;;;15.61;100.00;99256.41;5074028;28;20028;-64
2023/09/05 02:28:24;;;;;;;5.88;1.77;;;;;;;15.83;100.00;99248.66;5078686;28;20028;-59
2023/09/05 02:30:50;;;;;;;4.10;2.15;;;;;;;15.95;100.00;99251.44;5080948;28;20110;-64
2023/09/05 02:33:16;;;;;;;2.22;1.30;;;;;;;16.12;100.00;99243.50;5075207;28;20424;-59
2023/09/05 02:35:42;;;;;;;3.75;1.80;;;;;;;16.29;100.00;99244.53;5080507;28;20391;-64
2023/09/05 02:38:08;;;;;;;5.75;2.00;;;;;;;16.22;100.00;99249.25;5086960;28;20039;-64
2023/09/05 02:40:33;;;;;;;4.43;2.05;;;;;;;16.12;100.00;99244.34;5076782;28;20069;-62
2023/09/05 02:43:00;;;;;;;2.38;1.80;;;;;;;16.12;100.00;99252.53;5074891;28;20020;-59
2023/09/05 02:45:26;;;;;;;2.65;1.35;;;;;;;16.12;100.00;99254.41;5076970;28;20028;-59
2023/09/05 02:47:51;;;;;;;3.45;1.52;;;;;;;16.13;100.00;99256.06;5083759;28;20381;-60
2023/09/05 02:50:17;;;;;;;4.75;1.60;;;;;;;16.14;100.00;99255.03;5086123;28;20059;-59
2023/09/05 02:52:42;;;;;;;2.35;1.45;;;;;;;16.16;100.00;99258.34;5080898;28;20493;-64
2023/09/05 02:55:07;;;;;;;6.93;2.17;;;;;;;16.06;100.00;99258.03;5069030;28;20047;-60
2023/09/05 02:57:33;;;;;;;5.47;1.83;;;;;;;16.10;100.00;99256.53;5058827;28;20146;-59
2023/09/05 02:59:59;;;;;;;5.80;1.98;;;;;;;16.13;100.00;99264.25;5065356;28;20072;-62
2023/09/05 03:02:25;;;;;;;2.80;1.55;;;;;;;16.18;100.00;99275.34;5082116;28;20111;-59
2023/09/05 03:04:54;;;;;;;3.65;1.63;;;;;;;16.27;100.00;99263.06;5068083;28;20027;-64
2023/09/05 03:07:20;;;;;;;3.53;1.85;;;;;;;16.44;100.00;99274.19;5090164;28;20028;-60
2023/09/05 03:09:46;;;;;;;3.53;1.45;;;;;;;16.61;100.00;99267.03;5086808;28;20161;-64
2023/09/05 03:12:11;;;;;;;2.92;1.48;;;;;;;16.70;100.00;99262.06;5071239;28;20518;-59
2023/09/05 03:14:37;;;;;;;2.17;1.60;;;;;;;16.86;100.00;99261.41;5069400;28;20503;-59
2023/09/05 03:17:04;;;;;;;3.35;1.75;;;;;;;16.79;100.00;99268.03;5089449;28;20429;-59
2023/09/05 03:19:30;;;;;;;3.95;2.10;;;;;;;16.83;100.00;99264.63;5096737;28;20474;-59
2023/09/05 03:21:55;;;;;;;3.67;1.77;;;;;;;16.76;100.00;99274.78;5058368;28;20024;-59
2023/09/05 03:24:21;;;;;;;3.22;1.80;;;;;;;16.60;100.00;99272.69;5061764;28;20031;-59
2023/09/05 03:26:46;;;;;;;7.55;1.98;;;;;;;16.44;100.00;99274.19;5068818;28;20023;-62
2023/09/05 03:29:13;;;;;;;3.05;1.85;;;;;;;16.31;100.00;99275.16;5097522;28;20115;-59
2023/09/05 03:31:39;;;;;;;2.40;1.50;;;;;;;16.26;100.00;99274.19;5078726;28;20483;-59
2023/09/05 03:34:05;;;;;;;4.07;2.00;;;;;;;16.44;100.00;99275.00;5077740;28;20048;-59
2023/09/05 03:36:32;;;;;;;2.70;1.67;;;;;;;16.39;100.00;99277.59;5088814;28;20449;-59
2023/09/05 03:38:57;;;;;;;5.20;1.80;;;;;;;16.44;100.00;99268.72;5059865;28;20044;-59
2023/09/05 03:41:23;;;;;;;3.47;2.05;;;;;;;16.67;100.00;99268.00;5067280;28;20513;-59
2023/09/05 03:43:48;;;;;;;2.10;1.48;;;;;;;16.76;100.00;99263.03;5090149;28;20463;-59
2023/09/05 03:46:13;;;;;;;3.85;2.00;;;;;;;16.73;100.00;99267.06;5077230;28;20077;-59
2023/09/05 03:48:39;;;;;;;6.55;2.00;;;;;;;16.82;100.00;99256.66;5076747;28;20028;-59
2023/09/05 03:51:04;;;;;;;4.63;1.65;;;;;;;16.65;100.00;99262.75;5076126;28;20119;-59
2023/09/05 03:53:29;;;;;;;3.00;1.70;;;;;;;16.58;100.00;99263.91;5068988;28;20051;-59
2023/09/05 03:55:55;;;;;;;4.28;1.80;;;;;;;16.56;100.00;99255.94;5068502;28;20050;-59
2023/09/05 03:58:20;;;;;;;2.83;1.88;;;;;;;16.52;100.00;99252.00;5076745;28;20382;-59
2023/09/05 04:00:46;;;;;;;4.07;1.77;;;;;;;16.31;100.00;99247.88;5061193;28;20494;-64
2023/09/05 04:03:13;;;;;;;4.15;1.98;;;;;;;16.26;100.00;99252.34;5070613;28;20024;-59
2023/09/05 04:05:38;;;;;;;3.05;1.80;;;;;;;16.21;100.00;99253.03;5069185;28;20046;-59
2023/09/05 04:08:07;;;;;;;3.70;1.75;;;;;;;16.21;100.00;99240.22;5064250;28;20459;-59
2023/09/05 04:10:34;;;;;;;3.28;1.95;;;;;;;16.24;100.00;99240.81;5069688;28;20027;-59
2023/09/05 04:12:59;;;;;;;4.30;1.65;;;;;;;16.33;100.00;99231.28;5078746;28;20039;-60
2023/09/05 04:15:25;;;;;;;4.57;2.00;;;;;;;16.47;100.00;99230.00;5068276;28;20020;-58
2023/09/05 04:17:53;;;;;;;3.47;1.98;;;;;;;16.49;100.00;99216.97;5076437;28;20028;-59
2023/09/05 04:20:19;;;;;;;3.17;1.73;;;;;;;16.59;100.00;99233.63;5062576;28;20039;-58
2023/09/05 04:22:45;;;;;;;3.25;1.70;;;;;;;16.72;100.00;99232.59;5085632;28;20027;-59
2023/09/05 04:25:10;;;;;;;4.93;2.10;;;;;;;16.71;100.00;99241.84;5086519;28;20118;-59
2023/09/05 04:27:37;;;;;;;8.10;2.20;;;;;;;16.74;100.00;99241.41;5074283;28;20028;-59
2023/09/05 04:30:03;;;;;;;3.42;1.90;;;;;;;16.69;100.00;99232.22;5064946;28;20483;-60
2023/09/05 04:32:34;;;;;;;3.72;1.88;;;;;;;16.60;100.00;99245.38;5072666;28;20020;-62
2023/09/05 04:35:01;;;;;;;3.10;2.00;;;;;;;16.60;100.00;99240.75;5067097;28;20119;-63
2023/09/05 04:37:27;;;;;;;2.70;1.58;;;;;;;16.59;100.00;99250.03;5063902;28;20024;-58
2023/09/05 04:39:54;;;;;;;3.03;2.05;;;;;;;16.57;100.00;99245.84;5068513;28;20487;-63
2023/09/05 04:42:20;;;;;;;3.20;1.85;;;;;;;16.58;100.00;99250.25;5088836;28;20028;-66
2023/09/05 04:44:45;;;;;;;4.95;1.73;;;;;;;16.40;100.00;99259.31;5094846;28;20511;-68
2023/09/05 04:47:24;;;;;;;4.32;1.98;;;;;;;16.13;100.00;99254.19;5076939;28;20019;-59
2023/09/05 04:49:51;;;;;;;2.83;1.80;;;;;;;16.18;100.00;99248.88;5079260;28;20076;-60
2023/09/05 04:52:18;;;;;;;3.08;1.80;;;;;;;16.35;100.00;99251.81;5064491;28;20029;-59
2023/09/05 04:54:43;;;;;;;3.38;1.70;;;;;;;16.38;100.00;99253.25;5068094;28;20111;-59
2023/09/05 04:57:10;;;;;;;4.60;2.05;;;;;;;16.36;100.00;99255.38;5063501;28;20019;-59
2023/09/05 04:59:37;;;;;;;2.72;1.90;;;;;;;16.62;100.00;99259.66;5081153;28;20352;-59
2023/09/05 05:02:04;;;;;;;4.03;2.10;;;;;;;16.62;100.00;99262.38;5078312;28;20036;-59
2023/09/05 05:04:29;;;;;;;3.88;1.63;;;;;;;16.58;100.00;99270.22;5075034;28;20055;-59
2023/09/05 05:06:54;;;;;;;3.17;1.95;;;;;;;16.55;100.00;99269.81;5073946;28;20055;-60
2023/09/05 05:09:20;;;;;;;4.82;2.08;;;;;;;16.74;100.00;99271.47;5077773;28;20028;-64
2023/09/05 05:11:45;;;;;;;2.88;1.67;;;;;;;17.03;100.00;99274.44;5076577;28;20039;-64
2023/09/05 05:14:11;;;;;;;3.33;1.80;;;;;;;17.40;100.00;99266.06;5072678;28;20032;-64
2023/09/05 05:16:36;;;;;;;5.18;2.03;;;;;;;17.41;100.00;99278.66;5064090;28;20024;-65
2023/09/05 05:19:02;;;;;;;3.35;1.90;;;;;;;17.29;100.00;99276.75;5069478;28;20028;-59
2023/09/05 05:21:27;;;;;;;2.63;1.73;;;;;;;17.20;100.00;99283.63;5066801;28;20123;-60
2023/09/05 05:23:52;;;;;;;5.18;2.03;;;;;;;17.17;100.00;99284.09;5073551;28;20466;-59
2023/09/05 05:26:18;;;;;;;4.03;1.80;;;;;;;17.12;100.00;99281.22;5067525;28;20118;-59
2023/09/05 05:28:44;;;;;;;5.85;1.92;;;;;;;17.09;100.00;99277.06;5065939;28;20073;-59
2023/09/05 05:31:15;;;;;;;3.22;2.10;;;;;;;17.16;100.00;99276.97;5069280;28;20054;-62
2023/09/05 05:33:40;;;;;;;3.58;1.80;;;;;;;18.53;100.00;99264.72;5066512;28;20029;-60
2023/09/05 05:36:06;;;;;;;3.45;1.88;;;;;;;20.86;100.00;99257.84;5062739;28;20480;-59
2023/09/05 05:38:31;;;;;;;3.70;1.70;;;;;;;22.84;100.00;99253.84;5078689;28;20451;-60
2023/09/05 05:40:58;;;;;;;2.67;1.60;;;;;;;24.46;96.28;99246.53;5071527;28;20032;-60
2023/09/05 05:43:26;;;;;;;4.75;1.70;;;;;;;24.19;92.78;99252.44;5077099;28;20023;-64
2023/09/05 05:45:52;;;;;;;4.28;1.92;;;;;;;25.54;84.96;99249.44;5073441;28;20078;-65
2023/09/05 05:48:17;;;;;;;5.05;1.75;;;;;;;26.08;81.48;99249.47;5076240;28;20078;-60
2023/09/05 05:50:43;;;;;;;3.53;1.98;;;;;;;26.51;76.26;99243.91;5091856;28;20024;-64
2023/09/05 05:53:08;;;;;;;3.63;1.75;;;;;;;26.98;73.07;99256.88;5078490;28;20498;-60
2023/09/05 05:55:34;;;;;;;6.00;1.95;;;;;;;28.21;69.17;99262.31;5075262;28;20101;-60
2023/09/05 05:58:00;;;;;;;2.90;1.60;;;;;;;28.14;66.71;99262.75;5063988;28;20038;-60
2023/09/05 06:00:27;;;;;;;3.42;1.80;;;;;;;28.02;64.75;99268.78;5071590;28;20040;-65
2023/09/05 06:02:52;;;;;;;3.97;1.50;;;;;;;30.54;58.97;99264.44;5066595;28;20035;-60
2023/09/05 06:05:18;;;;;;;6.40;2.10;;;;;;;32.38;54.81;99238.72;5081442;23;20042;-72
2023/09/05 06:07:43;;;;;;;4.57;1.58;;;;;;;33.62;48.93;99269.19;5048353;28;20099;-71
2023/09/05 06:10:09;;;;;;;6.40;1.80;;;;;;;32.64;48.57;99260.19;5044809;28;20029;-72
2023/09/05 06:12:34;;;;;;;3.97;1.63;;;;;;;31.34;50.05;99248.25;5025617;28;20125;-73
2023/09/05 06:15:00;;;;;;;3.08;1.58;;;;;;;31.46;50.72;99264.38;5046369;28;20025;-72
2023/09/05 06:17:25;;;;;;;3.13;1.60;;;;;;;31.33;50.28;99259.75;5026711;28;20025;-72
2023/09/05 06:19:51;;;;;;;1.90;1.30;;;;;;;33.74;47.56;99252.38;5026081;28;20037;-74
2023/09/05 06:22:18;;;;;;;2.28;1.50;;;;;;;33.03;48.28;99261.75;5026193;28;20445;-73
2023/09/05 06:24:43;;;;;;;2.55;1.30;;;;;;;34.77;45.60;99265.47;5007288;28;20033;-75
2023/09/05 06:27:10;;;;;;;2.58;1.42;;;;;;;35.88;43.15;99265.09;5003887;28;20022;-75
2023/09/05 06:29:37;;;;;;;2.15;1.50;;;;;;;33.90;44.14;99269.34;5012096;28;20025;-73
2023/09/05 06:32:02;;;;;;;3.78;1.40;;;;;;;34.45;44.77;99275.66;5031501;28;20025;-75
2023/09/05 06:34:28;;;;;;;1.95;1.33;;;;;;;35.00;43.55;99270.56;5014094;28;20033;-75
2023/09/05 06:36:53;;;;;;;1.90;1.37;;;;;;;35.51;43.61;99268.88;5031810;28;20522;-75
2023/09/05 06:39:18;;;;;;;2.20;1.60;;;;;;;34.95;42.62;99254.75;5029806;28;20291;-75
2023/09/05 06:41:44;;;;;;;1.58;1.23;;;;;;;34.28;42.91;99251.44;5031863;28;20390;-75
2023/09/05 06:44:09;;;;;;;5.30;1.20;;;;;;;33.29;44.22;99263.53;5033796;28;20138;-77
2023/09/05 06:46:35;;;;;;;2.20;1.35;;;;;;;35.68;42.64;99250.06;5018438;28;20030;-75
2023/09/05 06:49:02;;;;;;;4.63;1.50;;;;;;;34.91;42.01;99265.09;5035347;28;20032;-75
2023/09/05 06:51:27;;;;;;;2.38;1.33;;;;;;;35.10;42.30;99270.09;5028939;28;20479;-77
2023/09/05 06:53:52;;;;;;;2.73;1.43;;;;;;;34.83;41.90;99261.25;5034021;28;20043;-77
2023/09/05 06:56:20;;;;;;;4.50;1.30;;;;;;;35.19;42.72;99255.88;5028951;28;20291;-77
2023/09/05 06:58:45;;;;;;;2.42;1.48;;;;;;;34.53;42.83;99266.28;5046812;28;20036;-75
2023/09/05 07:01:10;;;;;;;3.63;1.40;;;;;;;35.47;41.64;99265.16;5027050;28;20017;-75
2023/09/05 07:03:35;;;;;;;2.35;1.52;;;;;;;35.88;40.71;99262.28;5034306;28;20116;-77
2023/09/05 07:06:03;;;;;;;8.43;1.70;;;;;;;37.00;40.25;99261.00;5035419;28;20116;-78
2023/09/05 07:08:28;;;;;;;2.42;1.67;;;;;;;37.09;39.52;99260.81;5035380;28;20160;-77
2023/09/05 07:10:54;;;;;;;2.97;1.33;;;;;;;37.60;39.23;99266.31;5035733;28;20021;-75
2023/09/05 07:13:19;;;;;;;2.60;1.10;;;;;;;37.32;39.53;99277.84;5018615;28;20345;-77
2023/09/05 07:15:44;;;;;;;3.40;1.40;;;;;;;37.66;39.63;99282.59;5021304;28;20040;-74
2023/09/05 07:18:12;;;;;;;5.32;1.58;;;;;;;37.22;38.71;99280.03;5031798;28;20283;-74
2023/09/05 07:20:37;;;;;;;2.63;1.27;;;;;;;37.67;38.15;99281.38;5015044;28;20033;-77
2023/09/05 07:23:03;;;;;;;3.65;1.27;;;;;;;38.21;37.99;99273.91;5035085;28;20040;-77
2023/09/05 07:25:28;;;;;;;1.85;1.33;;;;;;;38.79;36.91;99261.53;5032415;28;20037;-76
2023/09/05 07:27:53;;;;;;;2.63;1.40;;;;;;;37.98;37.38;99262.63;5016538;28;20041;-77
2023/09/05 07:30:19;;;;;;;8.15;1.65;;;;;;;37.39;38.49;99267.50;5027230;28;20289;-76
2023/09/05 07:32:44;;;;;;;2.63;1.25;;;;;;;36.99;38.98;99263.00;5023260;28;20028;-74
2023/09/05 07:35:10;;;;;;;5.25;1.38;;;;;;;37.67;37.86;99252.34;5002707;28;20025;-74
2023/09/05 07:37:36;;;;;;;3.00;1.45;;;;;;;37.60;37.96;99253.03;5031628;28;20029;-74
2023/09/05 07:40:04;;;;;;;5.50;1.67;;;;;;;36.50;38.93;99257.00;5034460;28;20032;-74
2023/09/05 07:42:29;;;;;;;2.35;1.52;;;;;;;36.31;39.31;99243.66;5018410;28;20105;-76
2023/09/05 07:44:54;;;;;;;3.22;1.40;;;;;;;37.02;38.74;99253.81;5014862;28;20587;-74
2023/09/05 07:47:19;;;;;;;2.20;1.15;;;;;;;37.46;38.52;99259.16;5012788;28;20056;-74
2023/09/05 07:49:45;;;;;;;2.90;1.47;;;;;;;36.99;38.71;99250.91;5031969;28;20025;-76
2023/09/05 07:52:10;;;;;;;1.77;1.10;;;;;;;36.81;38.90;99256.13;5023451;28;20776;-76
2023/09/05 07:54:36;;;;;;;3.15;1.60;;;;;;;36.14;39.17;99256.94;5012966;28;20339;-76
2023/09/05 07:57:02;;;;;;;2.92;1.20;;;;;;;36.91;38.55;99249.09;5027165;28;20029;-76
2023/09/05 07:59:28;;;;;;;2.85;1.40;;;;;;;38.42;37.30;99255.69;5020316;28;20108;-76
2023/09/05 08:01:55;;;;;;;2.47;1.20;;;;;;;38.99;36.79;99256.59;5032946;28;20025;-76
2023/09/05 08:04:21;;;;;;;2.92;1.20;;;;;;;38.92;36.62;99248.00;5025063;28;20033;-76
2023/09/05 08:06:47;;;;;;;1.70;1.25;;;;;;;39.09;36.76;99270.03;5014697;28;20398;-77
2023/09/05 08:09:13;;;;;;;1.98;1.27;;;;;;;38.42;37.05;99259.31;5028100;28;20036;-76
2023/09/05 08:11:39;;;;;;;2.35;1.60;;;;;;;38.79;36.90;99275.66;5025119;28;20034;-76
2023/09/05 08:14:04;;;;;;;3.05;1.10;;;;;;;37.81;36.81;99260.25;5002182;28;20042;-75
2023/09/05 08:16:29;;;;;;;2.80;1.35;;;;;;;37.11;37.46;99256.44;5024653;28;20044;-76
2023/09/05 08:18:55;;;;;;;1.50;1.08;;;;;;;34.14;39.70;99254.59;5027735;28;20034;-76
2023/09/05 08:21:21;;;;;;;2.72;1.35;;;;;;;33.86;41.08;99260.00;5025577;28;20021;-76
2023/09/05 08:23:49;;;;;;;2.03;1.17;;;;;;;34.56;40.03;99245.91;5026051;28;20025;-76
2023/09/05 08:26:16;;;;;;;1.63;1.05;;;;;;;35.92;39.02;99241.47;5024876;28;20057;-82
2023/09/05 08:28:43;;;;;;;2.55;1.33;;;;;;;33.88;40.82;99252.06;5019158;28;20029;-82
2023/09/05 08:31:09;;;;;;;2.80;1.23;;;;;;;35.47;39.81;99231.38;5041807;28;20368;-85
2023/09/05 08:33:35;;;;;;;1.70;1.05;;;;;;;34.74;39.98;99220.38;5022803;28;20029;-85
2023/09/05 08:36:00;;;;;;;1.90;1.38;;;;;;;36.40;39.00;99233.84;5023953;28;20021;-84
2023/09/05 08:38:25;;;;;;;1.95;1.10;;;;;;;35.98;38.76;99245.66;5027929;28;20040;-76
2023/09/05 08:40:51;;;;;;;3.00;1.17;;;;;;;34.52;39.55;99228.13;5028655;28;20025;-76
2023/09/05 08:43:17;;;;;;;2.17;1.20;;;;;;;33.98;40.22;99233.94;5032484;28;20029;-76
2023/09/05 08:45:45;;;;;;;2.50;1.02;;;;;;;34.21;40.42;99243.56;5028925;28;20020;-75
2023/09/05 08:48:11;;;;;;;5.22;1.42;;;;;;;35.65;39.08;99225.47;5031222;28;20096;-76
2023/09/05 08:50:39;;;;;;;3.50;1.00;;;;;;;36.31;38.08;99233.19;5031153;28;20037;-76
2023/09/05 08:53:11;;;;;;;2.15;1.05;;;;;;;36.53;37.68;99237.38;5033654;28;20387;-75
2023/09/05 08:55:40;;;;;;;2.80;1.02;;;;;;;37.18;36.70;99234.03;5007709;28;20442;-76
2023/09/05 08:58:14;;;;;;;1.88;1.00;;;;;;;37.61;36.33;99234.88;5031576;28;20529;-75
2023/09/05 09:00:39;;;;;;;1.95;0.88;;;;;;;38.79;35.67;99236.06;5031578;28;20037;-76
2023/09/05 09:03:06;;;;;;;3.13;1.08;;;;;;;39.34;35.31;99235.63;5031809;28;20453;-76
2023/09/05 09:05:32;;;;;;;2.15;0.95;;;;;;;38.49;36.70;99234.03;5034059;28;20442;-76
2023/09/05 09:07:57;;;;;;;5.55;1.10;;;;;;;40.89;34.57;99241.47;5007709;28;20021;-73
2023/09/05 09:10:23;;;;;;;4.50;0.90;;;;;;;41.22;33.78;99242.47;5028692;28;20030;-73
2023/09/05 09:13:13;;;;;;;4.05;1.20;;;;;;;39.98;33.82;99243.97;5032884;28;20060;-82
2023/09/05 09:15:41;;;;;;;2.40;1.13;;;;;;;38.22;34.27;99238.00;5026163;28;20044;-82
2023/09/05 09:18:11;;;;;;;1.55;0.90;;;;;;;37.38;35.33;99231.19;5020191;28;20112;-82
2023/09/05 09:20:49;;;;;;;2.10;0.90;;;;;;;36.20;36.48;99229.31;5011438;28;20380;-74
2023/09/05 09:23:27;;;;;;;1.77;1.00;;;;;;;35.87;37.24;99233.31;5013395;28;20038;-75
2023/09/05 09:25:54;;;;;;;1.65;0.90;;;;;;;37.04;36.61;99239.34;5027662;28;20059;-76
2023/09/05 09:28:28;;;;;;;1.55;0.98;;;;;;;38.37;35.99;99242.69;5013507;28;20037;-78
2023/09/05 09:30:58;;;;;;;2.30;1.17;;;;;;;38.36;35.06;99241.88;5011607;28;20060;-77
2023/09/05 09:33:24;;;;;;;1.77;1.00;;;;;;;39.40;34.33;99237.69;5026356;28;20127;-77
2023/09/05 09:36:04;;;;;;;1.85;1.00;;;;;;;40.25;33.98;99231.31;5031179;28;20510;-77
2023/09/05 09:38:30;;;;;;;1.83;1.00;;;;;;;39.03;34.52;99228.31;5032037;28;20033;-72
2023/09/05 09:41:00;;;;;;;2.33;0.95;;;;;;;39.54;34.20;99234.22;5023367;28;20415;-73
2023/09/05 09:43:26;;;;;;;1.98;1.02;;;;;;;39.15;35.01;99231.72;5021860;28;20040;-71
2023/09/05 09:45:52;;;;;;;2.13;1.00;;;;;;;39.11;34.94;99225.19;5026791;28;20021;-75
2023/09/05 09:48:19;;;;;;;2.38;1.00;;;;;;;38.94;35.58;99222.97;5029690;28;20029;-76
2023/09/05 09:50:48;;;;;;;1.73;1.10;;;;;;;39.99;34.62;99223.78;5011110;28;20033;-72
2023/09/05 09:53:19;;;;;;;1.42;0.88;;;;;;;40.66;33.01;99222.69;5034630;28;20057;-72
2023/09/05 09:55:51;;;;;;;2.20;1.13;;;;;;;40.68;33.69;99219.47;5017805;28;20565;-71
2023/09/05 09:58:18;;;;;;;2.80;1.17;;;;;;;40.83;33.63;99209.00;5025298;28;20084;-74
2023/09/05 10:00:47;;;;;;;1.42;0.90;;;;;;;42.04;33.21;99206.53;5037005;28;20036;-72
2023/09/05 10:03:15;;;;;;;2.00;0.90;;;;;;;42.89;32.26;99213.38;5027777;28;20453;-72
2023/09/05 10:05:41;;;;;;;8.35;1.33;;;;;;;42.14;32.21;99207.75;5026102;28;20094;-72
2023/09/05 10:08:10;;;;;;;1.95;1.02;;;;;;;41.58;32.98;99215.00;5031607;28;20618;-76
2023/09/05 10:10:39;;;;;;;1.60;0.70;;;;;;;42.71;31.38;99204.03;5026474;28;20052;-77
2023/09/05 10:13:09;;;;;;;1.10;0.80;;;;;;;40.99;32.48;99197.31;5027584;28;20025;-77
2023/09/05 10:15:36;;;;;;;3.05;0.80;;;;;;;41.12;32.53;99199.44;5025544;28;20425;-77
2023/09/05 10:18:02;;;;;;;1.73;0.90;;;;;;;40.45;33.41;99200.63;5023320;28;20057;-72
2023/09/05 10:20:28;;;;;;;2.42;1.08;;;;;;;40.81;34.74;99194.41;5034162;28;20108;-72
2023/09/05 10:22:53;;;;;;;3.50;0.80;;;;;;;42.90;33.55;99194.25;5031492;28;20385;-72
2023/09/05 10:25:20;;;;;;;2.88;1.20;;;;;;;42.27;32.68;99182.56;5027405;28;20021;-72
2023/09/05 10:27:46;;;;;;;4.90;1.20;;;;;;;43.53;32.84;99182.94;5017417;28;20022;-72
2023/09/05 10:30:11;;;;;;;3.05;1.10;;;;;;;42.73;32.42;99175.97;5024383;28;20087;-72
2023/09/05 10:32:44;;;;;;;1.30;1.00;;;;;;;41.54;32.87;99166.69;5029081;28;20041;-72
2023/09/05 10:35:15;;;;;;;1.88;0.90;;;;;;;41.67;33.31;99184.16;5028651;28;20030;-72
2023/09/05 10:37:49;;;;;;;1.80;0.90;;;;;;;42.72;31.88;99194.28;5024642;28;20068;-72
2023/09/05 10:40:14;;;;;;;2.15;0.80;;;;;;;41.85;33.15;99175.66;5021136;28;20030;-72
2023/09/05 10:42:48;;;;;;;4.72;0.93;;;;;;;41.70;33.49;99188.22;5027532;28;20494;-72
2023/09/05 10:45:23;;;;;;;1.20;0.88;;;;;;;43.06;32.62;99183.19;5012537;28;20033;-72
2023/09/05 10:47:53;;;;;;;3.88;1.20;;;;;;;43.02;32.38;99184.41;5030863;28;20103;-72
2023/09/05 10:50:20;;;;;;;2.05;1.10;;;;;;;43.14;31.89;99178.25;5030502;28;20451;-72
2023/09/05 10:53:11;;;;;;;1.30;0.90;;;;;;;42.42;32.26;99180.53;5008779;28;20064;-72
2023/09/05 10:55:44;;;;;;;1.75;0.90;;;;;;;41.23;32.47;99176.75;5028941;28;20511;-74
2023/09/05 10:58:45;;;;;;;3.45;1.00;;;;;;;42.14;32.85;99167.16;5011677;28;20030;-74
2023/09/05 11:01:29;;;;;;;4.03;1.00;;;;;;;41.34;32.50;99156.91;5017122;28;20033;-74
2023/09/05 11:04:07;;;;;;;1.77;1.10;;;;;;;41.39;32.54;99160.16;5028878;28;20498;-74
2023/09/05 11:06:32;;;;;;;2.17;0.80;;;;;;;42.25;32.88;99162.25;5024043;28;20502;-72
2023/09/05 11:09:01;;;;;;;1.67;1.00;;;;;;;42.22;32.19;99163.06;5021679;28;20026;-72
2023/09/05 11:11:27;;;;;;;1.75;0.90;;;;;;;41.50;33.00;99163.03;5025692;28;20033;-73
2023/09/05 11:13:54;;;;;;;1.40;0.80;;;;;;;42.04;32.07;99169.59;5028494;28;20032;-72
2023/09/05 11:16:19;;;;;;;2.05;0.80;;;;;;;42.78;31.56;99169.88;5025890;28;20033;-72
2023/09/05 11:18:47;;;;;;;1.60;0.83;;;;;;;42.60;31.72;99163.41;5019464;28;20021;-72
2023/09/05 11:21:22;;;;;;;1.55;0.70;;;;;;;42.79;31.18;99177.22;5023393;28;20036;-71
2023/09/05 11:23:54;;;;;;;2.88;0.80;;;;;;;43.12;30.62;99172.97;5017001;28;20359;-72
2023/09/05 11:26:23;;;;;;;2.42;0.73;;;;;;;41.72;31.37;99169.56;5032733;28;20030;-74
2023/09/05 11:28:51;;;;;;;2.15;0.63;;;;;;;42.39;32.71;99169.97;5009387;28;20483;-73